Time;durP1;ratioP1;P1;durP2;ratioP2;P2;SDS_P1;SDS_P2;PMS_P1;PMS_P2;Temp;Humidity;BMP_temperature;BMP_pressure;BME280_temperature;BME280_humidity;BME280_pressure;Samples;Min_cycle;Max_cycle;Signal;HPM_P1;HPM_P2
2022/04/04 00:01:34;;;;;;;2.85;2.25;;;1.40;24.20;;;;;;5078219;27;34190;-77
2022/04/04 00:04:00;;;;;;;2.92;2.17;;;1.30;24.40;;;;;;5103507;28;35488;-77
2022/04/04 00:06:29;;;;;;;2.33;2.13;;;1.20;24.60;;;;;;5089303;28;34329;-77
2022/04/04 00:08:55;;;;;;;3.28;2.40;;;1.20;24.60;;;;;;5079498;27;34149;-78
2022/04/04 00:11:21;;;;;;;2.55;2.13;;;1.10;24.50;;;;;;5128259;27;34129;-78
2022/04/04 00:13:47;;;;;;;3.85;2.15;;;1.10;24.70;;;;;;5075317;27;35765;-77
2022/04/04 00:16:13;;;;;;;3.40;2.30;;;1.00;24.80;;;;;;5093195;27;34426;-77
2022/04/04 00:18:39;;;;;;;2.30;2.03;;;1.00;25.00;;;;;;5108474;27;34563;-77
2022/04/04 00:21:05;;;;;;;2.67;2.08;;;0.90;25.10;;;;;;5108749;27;34118;-77
2022/04/04 00:23:31;;;;;;;3.28;2.22;;;0.90;25.10;;;;;;5105991;27;36252;-77
2022/04/04 00:25:57;;;;;;;3.70;2.00;;;0.80;25.20;;;;;;5087874;28;34381;-77
2022/04/04 00:28:23;;;;;;;2.28;1.85;;;0.70;25.20;;;;;;5093364;27;34296;-77
2022/04/04 00:30:49;;;;;;;2.53;2.28;;;0.60;25.80;;;;;;5127146;27;34071;-77
2022/04/04 00:33:15;;;;;;;2.15;1.80;;;0.60;25.80;;;;;;5090826;27;35680;-77
2022/04/04 00:35:41;;;;;;;2.45;2.00;;;0.60;25.80;;;;;;5108345;27;34615;-77
2022/04/04 00:38:10;;;;;;;3.80;2.25;;;0.50;25.90;;;;;;5108513;27;34246;-77
2022/04/04 00:40:37;;;;;;;2.35;2.13;;;0.50;25.80;;;;;;5108483;27;34107;-77
2022/04/04 00:43:03;;;;;;;3.22;2.35;;;0.50;26.20;;;;;;5107706;27;36008;-77
2022/04/04 00:45:29;;;;;;;2.65;2.08;;;0.50;26.10;;;;;;5088089;28;34191;-77
2022/04/04 00:47:55;;;;;;;2.30;2.05;;;0.40;26.20;;;;;;5087932;28;34052;-77
2022/04/04 00:50:22;;;;;;;2.75;2.13;;;0.40;26.00;;;;;;5088196;28;34130;-77
2022/04/04 00:52:49;;;;;;;3.40;2.33;;;0.40;25.70;;;;;;5106290;28;34842;-77
2022/04/04 00:55:15;;;;;;;2.55;2.30;;;0.40;25.80;;;;;;5106128;28;34173;-77
2022/04/04 00:57:41;;;;;;;1.75;1.65;;;0.30;25.80;;;;;;5088677;27;34230;-77
2022/04/04 01:00:09;;;;;;;2.25;2.03;;;0.30;26.00;;;;;;5108123;27;34484;-77
2022/04/04 01:02:36;;;;;;;3.45;2.13;;;0.30;26.20;;;;;;5087462;28;35967;-77
2022/04/04 01:05:04;;;;;;;2.72;2.53;;;0.30;26.40;;;;;;5087567;28;34652;-77
2022/04/04 01:07:31;;;;;;;3.72;2.20;;;0.20;26.00;;;;;;5091245;27;34357;-77
2022/04/04 01:09:57;;;;;;;2.40;2.20;;;0.20;26.40;;;;;;5126405;27;34065;-77
2022/04/04 01:12:23;;;;;;;2.90;1.73;;;0.20;26.70;;;;;;5104106;28;35637;-77
2022/04/04 01:14:49;;;;;;;1.98;1.88;;;0.20;27.00;;;;;;5103123;28;34280;-77
2022/04/04 01:17:17;;;;;;;2.33;2.08;;;0.20;26.90;;;;;;5108447;27;34166;-77
2022/04/04 01:19:45;;;;;;;4.13;1.88;;;0.10;26.70;;;;;;5126948;27;34039;-77
2022/04/04 01:22:13;;;;;;;2.28;2.08;;;0.10;26.30;;;;;;5108346;27;35670;-77
2022/04/04 01:24:40;;;;;;;2.42;1.83;;;0.10;26.80;;;;;;5108640;27;34208;-77
2022/04/04 01:27:07;;;;;;;2.33;2.13;;;0.10;27.00;;;;;;5083244;28;34061;-77
2022/04/04 01:29:34;;;;;;;2.90;2.20;;;0.00;26.70;;;;;;5107647;27;35111;-77
2022/04/04 01:32:00;;;;;;;2.60;2.30;;;0.00;26.60;;;;;;5094356;28;35904;-77
2022/04/04 01:34:29;;;;;;;4.03;2.45;;;-0.10;26.90;;;;;;5105687;28;34116;-77
2022/04/04 01:36:55;;;;;;;5.72;2.20;;;-0.10;26.90;;;;;;5095033;27;34250;-77
2022/04/04 01:39:22;;;;;;;2.60;1.73;;;-0.10;27.00;;;;;;5107694;27;34562;-77
2022/04/04 01:41:48;;;;;;;3.97;1.73;;;-0.20;27.00;;;;;;5090378;27;34170;-77
2022/04/04 01:44:14;;;;;;;2.05;1.85;;;-0.20;27.50;;;;;;5107722;27;34377;-77
2022/04/04 01:46:40;;;;;;;1.92;1.70;;;-0.30;27.50;;;;;;5107544;27;34178;-76
2022/04/04 01:49:07;;;;;;;2.55;2.05;;;-0.40;27.60;;;;;;5108028;27;34528;-76
2022/04/04 01:51:34;;;;;;;2.53;2.25;;;-0.40;27.50;;;;;;5125061;27;34960;-76
2022/04/04 01:54:01;;;;;;;2.17;1.95;;;-0.40;27.50;;;;;;5125715;27;34342;-77
2022/04/04 01:56:28;;;;;;;2.47;2.30;;;-0.40;27.50;;;;;;5087414;27;34239;-76
2022/04/04 01:58:54;;;;;;;2.20;2.00;;;-0.40;27.40;;;;;;5087245;28;34315;-76
2022/04/04 02:01:23;;;;;;;1.92;1.75;;;-0.50;27.10;;;;;;5087779;27;36841;-76
2022/04/04 02:03:53;;;;;;;2.70;2.35;;;-0.50;27.40;;;;;;5087086;28;34138;-76
2022/04/04 02:06:19;;;;;;;2.20;1.85;;;-0.60;27.60;;;;;;5070681;28;34245;-77
2022/04/04 02:08:46;;;;;;;2.10;1.90;;;-0.60;27.60;;;;;;5114802;27;34252;-76
2022/04/04 02:11:13;;;;;;;2.30;2.05;;;-0.70;27.90;;;;;;5102748;28;36988;-76
2022/04/04 02:13:40;;;;;;;3.13;2.47;;;-0.70;28.10;;;;;;5106610;27;34154;-76
2022/04/04 02:16:07;;;;;;;2.03;1.83;;;-0.70;27.80;;;;;;5106849;27;34287;-77
2022/04/04 02:18:35;;;;;;;2.05;1.80;;;-0.80;27.30;;;;;;5124970;27;34215;-77
2022/04/04 02:21:02;;;;;;;2.03;1.83;;;-0.80;27.60;;;;;;5089627;27;35799;-76
2022/04/04 02:23:28;;;;;;;3.80;1.92;;;-0.80;27.60;;;;;;5069845;28;34040;-77
2022/04/04 02:25:55;;;;;;;4.53;2.17;;;-0.80;28.00;;;;;;5069410;28;34152;-76
2022/04/04 02:28:22;;;;;;;1.70;1.60;;;-0.90;28.20;;;;;;5121661;27;34196;-77
2022/04/04 02:30:49;;;;;;;2.50;2.20;;;-0.90;28.40;;;;;;5069094;28;36593;-76
2022/04/04 02:33:16;;;;;;;1.75;1.63;;;-1.00;28.60;;;;;;5104653;27;34592;-76
2022/04/04 02:35:43;;;;;;;4.13;2.15;;;-1.00;28.50;;;;;;5075766;28;34486;-76
2022/04/04 02:38:09;;;;;;;2.20;2.00;;;-1.00;28.40;;;;;;5086422;28;34032;-76
2022/04/04 02:40:36;;;;;;;2.38;2.15;;;-1.00;28.40;;;;;;5103726;28;35280;-76
2022/04/04 02:43:03;;;;;;;2.22;1.98;;;-1.10;28.30;;;;;;5100521;27;34143;-76
2022/04/04 02:45:29;;;;;;;2.28;2.05;;;-1.10;28.40;;;;;;5106051;27;34594;-76
2022/04/04 02:47:55;;;;;;;2.00;1.83;;;-1.10;28.40;;;;;;5089748;27;34055;-76
2022/04/04 02:50:22;;;;;;;2.58;2.38;;;-1.10;28.60;;;;;;5124516;27;34374;-76
2022/04/04 02:52:48;;;;;;;2.10;1.90;;;-1.20;28.90;;;;;;5105867;27;34234;-76
2022/04/04 02:57:56;;;;;;;1.98;1.77;;;-1.20;28.40;;;;;;5126680;27;34292;-76
2022/04/04 03:00:24;;;;;;;2.30;2.10;;;-1.20;28.60;;;;;;5092567;27;36107;-76
2022/04/04 03:02:52;;;;;;;3.50;1.92;;;-1.30;28.40;;;;;;5093123;27;34015;-76
2022/04/04 03:05:19;;;;;;;3.80;2.35;;;-1.30;28.40;;;;;;5109520;27;34168;-76
2022/04/04 03:07:45;;;;;;;2.55;1.83;;;-1.30;28.40;;;;;;5092642;27;34192;-76
2022/04/04 03:10:13;;;;;;;1.60;1.50;;;-1.40;28.80;;;;;;5109235;27;35897;-76
2022/04/04 03:12:48;;;;;;;1.65;1.55;;;-1.40;28.50;;;;;;5128185;27;34059;-76
2022/04/04 03:15:20;;;;;;;1.50;1.40;;;-1.40;29.00;;;;;;5109567;27;34084;-76
2022/04/04 03:17:49;;;;;;;2.20;1.77;;;-1.50;29.00;;;;;;5092265;27;34638;-76
2022/04/04 03:20:16;;;;;;;2.72;2.10;;;-1.50;28.90;;;;;;5109645;27;34370;-76
2022/04/04 03:22:45;;;;;;;1.67;1.58;;;-1.50;29.20;;;;;;5108957;27;34162;-76
2022/04/04 03:25:13;;;;;;;2.13;1.80;;;-1.60;29.10;;;;;;5109091;27;34394;-76
2022/04/04 03:27:41;;;;;;;3.38;1.92;;;-1.60;28.70;;;;;;5092579;27;34060;-76
2022/04/04 03:30:10;;;;;;;2.30;1.80;;;-1.60;29.10;;;;;;5091817;27;35909;-76
2022/04/04 03:32:37;;;;;;;2.50;1.98;;;-1.60;29.20;;;;;;5109762;27;34346;-76
2022/04/04 03:35:05;;;;;;;1.88;1.77;;;-1.70;29.40;;;;;;5108801;27;34439;-76
2022/04/04 03:37:33;;;;;;;2.95;2.40;;;-1.70;29.40;;;;;;5092098;27;35985;-76
2022/04/04 03:39:59;;;;;;;3.50;2.30;;;-1.70;29.50;;;;;;5127044;27;34609;-76
2022/04/04 03:42:25;;;;;;;2.70;2.05;;;-1.70;29.30;;;;;;5108965;27;34235;-76
2022/04/04 03:44:50;;;;;;;2.88;1.92;;;-1.70;29.40;;;;;;5108982;27;34060;-76
2022/04/04 03:47:17;;;;;;;2.22;2.03;;;-1.80;29.50;;;;;;5105965;28;34530;-76
2022/04/04 03:49:43;;;;;;;2.72;2.20;;;-1.80;29.60;;;;;;5108009;27;35613;-76
2022/04/04 03:52:11;;;;;;;2.22;1.98;;;-1.80;29.70;;;;;;5104904;28;34090;-76
2022/04/04 03:54:38;;;;;;;2.50;2.10;;;-1.80;29.70;;;;;;5088120;28;34156;-76
2022/04/04 03:57:04;;;;;;;2.33;2.13;;;-1.80;29.80;;;;;;5088256;28;34136;-76
2022/04/04 03:59:30;;;;;;;2.35;2.08;;;-1.90;29.70;;;;;;5054674;27;35808;-76
2022/04/04 04:01:56;;;;;;;3.88;2.72;;;-1.90;30.00;;;;;;5088245;28;34136;-76
2022/04/04 04:04:22;;;;;;;2.88;2.30;;;-1.90;30.00;;;;;;5088205;28;34093;-76
2022/04/04 04:06:47;;;;;;;3.03;2.42;;;-1.80;29.90;;;;;;5088078;27;34607;-76
2022/04/04 04:09:13;;;;;;;3.25;2.65;;;-1.90;29.80;;;;;;5086929;28;35858;-76
2022/04/04 04:11:40;;;;;;;2.85;1.90;;;-1.90;29.80;;;;;;5088136;28;34077;-76
2022/04/04 04:14:06;;;;;;;2.50;2.20;;;-1.90;29.70;;;;;;5088035;28;34094;-76
2022/04/04 04:16:32;;;;;;;2.28;2.08;;;-1.90;29.70;;;;;;5088053;28;34504;-77
2022/04/04 04:18:58;;;;;;;3.35;2.20;;;-1.90;29.80;;;;;;5107618;27;38106;-76
2022/04/04 04:21:25;;;;;;;5.85;1.88;;;-1.90;29.90;;;;;;5108212;27;34219;-76
2022/04/04 04:23:51;;;;;;;2.45;2.25;;;-2.00;29.30;;;;;;5108871;27;34226;-76
2022/04/04 04:26:17;;;;;;;3.88;2.50;;;-1.90;29.20;;;;;;5091156;27;34165;-76
2022/04/04 04:28:45;;;;;;;6.85;2.08;;;-2.00;29.20;;;;;;5107474;27;36331;-76
2022/04/04 04:31:13;;;;;;;2.78;2.20;;;-2.00;29.50;;;;;;5108187;27;34223;-76
2022/04/04 04:33:39;;;;;;;2.28;1.92;;;-2.00;29.40;;;;;;5107685;27;34253;-76
2022/04/04 04:36:04;;;;;;;1.88;1.75;;;-2.00;29.60;;;;;;5108751;27;34156;-76
2022/04/04 04:38:31;;;;;;;3.00;2.15;;;-2.00;29.50;;;;;;5091011;27;35603;-76
2022/04/04 04:40:58;;;;;;;2.50;2.30;;;-2.10;30.00;;;;;;5108260;27;34270;-76
2022/04/04 04:43:24;;;;;;;5.55;2.95;;;-2.10;30.10;;;;;;5107901;27;34098;-76
2022/04/04 04:45:50;;;;;;;2.85;2.10;;;-2.10;30.40;;;;;;5126505;27;34138;-76
2022/04/04 04:48:16;;;;;;;2.42;2.10;;;-2.10;30.30;;;;;;5090837;27;36190;-76
2022/04/04 04:50:42;;;;;;;2.55;2.35;;;-2.10;30.20;;;;;;5107630;27;34186;-76
2022/04/04 04:53:08;;;;;;;2.72;2.40;;;-2.10;30.10;;;;;;5108193;27;34221;-77
2022/04/04 04:55:34;;;;;;;2.03;1.92;;;-2.10;30.40;;;;;;5107899;27;34140;-76
2022/04/04 04:58:00;;;;;;;2.35;2.15;;;-2.10;30.30;;;;;;5108091;27;34699;-76
2022/04/04 05:00:28;;;;;;;2.17;1.95;;;-2.10;30.40;;;;;;5126158;27;34253;-76
2022/04/04 05:05:38;;;;;;;2.92;2.33;;;-2.10;30.90;;;;;;5125290;27;34121;-76
2022/04/04 05:08:05;;;;;;;2.28;2.08;;;-2.10;31.10;;;;;;5107362;27;35612;-76
2022/04/04 05:10:32;;;;;;;2.58;2.08;;;-2.10;31.10;;;;;;5107403;27;34076;-77
2022/04/04 05:12:58;;;;;;;3.55;2.30;;;-2.00;30.60;;;;;;5107614;27;34112;-76
2022/04/04 05:15:24;;;;;;;2.88;2.38;;;-2.00;30.60;;;;;;5125887;27;34157;-76
2022/04/04 05:17:52;;;;;;;2.65;2.20;;;-2.00;30.60;;;;;;5107336;27;35634;-77
2022/04/04 05:20:19;;;;;;;3.40;2.38;;;-1.90;30.50;;;;;;5090297;27;34366;-76
2022/04/04 05:22:46;;;;;;;2.42;2.22;;;-1.90;30.60;;;;;;5122777;27;34241;-76
2022/04/04 05:25:12;;;;;;;4.28;2.65;;;-1.90;30.40;;;;;;5097773;27;34509;-76
2022/04/04 05:27:39;;;;;;;2.22;2.03;;;-1.90;30.30;;;;;;5091979;27;36187;-76
2022/04/04 05:30:06;;;;;;;3.47;3.08;;;-1.90;30.30;;;;;;5127880;27;34134;-78
2022/04/04 05:32:32;;;;;;;2.83;2.60;;;-1.90;29.90;;;;;;5091025;27;34178;-77
2022/04/04 05:34:58;;;;;;;5.03;2.75;;;-1.90;29.70;;;;;;5107060;27;34061;-76
2022/04/04 05:37:25;;;;;;;3.47;2.53;;;-1.80;30.10;;;;;;5106626;27;35587;-76
2022/04/04 05:39:51;;;;;;;4.25;2.60;;;-1.80;30.30;;;;;;5107306;27;34154;-76
2022/04/04 05:42:17;;;;;;;2.42;2.22;;;-1.70;30.20;;;;;;5107039;27;34254;-76
2022/04/04 05:44:43;;;;;;;3.00;2.45;;;-1.70;30.30;;;;;;5125260;27;34260;-76
2022/04/04 05:47:11;;;;;;;3.08;2.65;;;-1.70;30.30;;;;;;5126069;27;35296;-78
2022/04/04 05:49:37;;;;;;;2.80;2.50;;;-1.70;30.20;;;;;;5111511;27;34114;-79
2022/04/04 05:52:04;;;;;;;3.83;2.95;;;-1.60;30.00;;;;;;5092465;27;33944;-79
2022/04/04 05:54:31;;;;;;;3.03;2.38;;;-1.60;29.80;;;;;;5094947;27;34184;-79
2022/04/04 05:56:57;;;;;;;2.75;2.50;;;-1.50;29.90;;;;;;5110231;27;35782;-77
2022/04/04 05:59:25;;;;;;;4.25;2.80;;;-1.40;30.00;;;;;;5125092;27;34133;-77
2022/04/04 06:01:51;;;;;;;3.67;2.67;;;-1.30;30.20;;;;;;5124755;27;34121;-77
2022/04/04 06:04:17;;;;;;;3.85;2.63;;;-1.10;29.80;;;;;;5106775;27;34471;-77
2022/04/04 06:06:43;;;;;;;3.80;2.55;;;-0.90;29.40;;;;;;5124267;27;34612;-77
2022/04/04 06:09:09;;;;;;;3.28;2.47;;;-0.70;29.20;;;;;;5106688;27;34521;-77
2022/04/04 06:11:35;;;;;;;4.10;2.70;;;-0.60;29.00;;;;;;5089759;27;34045;-77
2022/04/04 06:14:01;;;;;;;5.15;3.30;;;-0.30;29.00;;;;;;5106651;27;34068;-77
2022/04/04 06:16:28;;;;;;;4.70;3.63;;;-0.10;28.40;;;;;;5089298;27;35560;-77
2022/04/04 06:18:54;;;;;;;4.85;3.50;;;0.30;28.00;;;;;;5099859;27;33864;-78
2022/04/04 06:21:20;;;;;;;4.80;3.35;;;0.60;27.30;;;;;;5107146;27;34241;-78
2022/04/04 06:23:46;;;;;;;3.83;3.30;;;0.90;26.60;;;;;;5093126;27;33966;-77
2022/04/04 06:26:13;;;;;;;3.72;3.35;;;1.10;25.90;;;;;;5125863;27;36921;-78
2022/04/04 06:28:39;;;;;;;3.42;3.13;;;1.60;25.30;;;;;;5095128;27;34430;-78
2022/04/04 06:31:05;;;;;;;5.97;3.40;;;2.00;24.80;;;;;;5136320;27;34055;-80
2022/04/04 06:33:31;;;;;;;4.40;3.47;;;2.40;24.30;;;;;;5133479;27;34020;-79
2022/04/04 06:35:57;;;;;;;3.30;2.83;;;2.70;23.90;;;;;;5124400;27;34461;-79
2022/04/04 06:38:23;;;;;;;6.30;3.38;;;2.80;23.30;;;;;;5121156;27;34224;-79
2022/04/04 06:40:49;;;;;;;4.40;3.58;;;2.90;22.90;;;;;;5120507;27;34043;-79
2022/04/04 06:43:19;;;;;;;4.32;3.40;;;3.20;23.20;;;;;;5127749;27;34245;-79
2022/04/04 06:45:46;;;;;;;4.82;3.30;;;3.50;23.50;;;;;;5120779;27;36713;-79
2022/04/04 06:48:12;;;;;;;5.47;3.83;;;3.70;22.80;;;;;;5142293;27;34408;-79
2022/04/04 06:50:38;;;;;;;5.03;3.60;;;3.90;22.60;;;;;;5142533;27;34319;-79
2022/04/04 06:53:04;;;;;;;5.50;3.80;;;4.10;22.30;;;;;;5103303;28;34697;-79
2022/04/04 06:55:32;;;;;;;4.63;3.40;;;4.40;21.60;;;;;;5119998;28;35927;-79
2022/04/04 06:57:58;;;;;;;4.57;3.67;;;4.60;21.20;;;;;;5118828;27;34418;-79
2022/04/04 07:00:24;;;;;;;4.47;3.63;;;4.80;21.00;;;;;;5106693;28;34114;-79
2022/04/04 07:02:50;;;;;;;5.95;3.60;;;5.10;21.10;;;;;;5096740;28;34272;-79
2022/04/04 07:05:17;;;;;;;10.35;4.00;;;5.10;20.50;;;;;;5115713;27;35936;-79
2022/04/04 07:07:44;;;;;;;6.45;4.05;;;5.30;20.60;;;;;;5114041;28;34169;-78
2022/04/04 07:10:11;;;;;;;4.35;3.65;;;5.40;20.30;;;;;;5098430;28;34083;-79
2022/04/04 07:12:42;;;;;;;7.13;3.90;;;5.60;20.50;;;;;;5108741;27;34015;-79
2022/04/04 07:15:11;;;;;;;4.20;3.50;;;5.80;20.80;;;;;;5122505;27;34031;-78
2022/04/04 07:17:39;;;;;;;7.95;3.90;;;5.90;20.20;;;;;;5126036;27;34441;-78
2022/04/04 07:20:06;;;;;;;4.07;3.67;;;5.80;19.60;;;;;;5131461;27;34208;-78
2022/04/04 07:22:36;;;;;;;5.03;3.95;;;5.90;19.60;;;;;;5097419;27;34397;-77
2022/04/04 07:25:09;;;;;;;6.25;3.70;;;6.00;19.50;;;;;;5114848;27;34385;-77
2022/04/04 07:27:39;;;;;;;4.68;3.65;;;6.30;19.40;;;;;;5090419;27;34404;-80
2022/04/04 07:30:06;;;;;;;4.72;3.75;;;6.50;19.30;;;;;;5131762;27;34074;-77
2022/04/04 07:32:35;;;;;;;4.53;3.67;;;6.70;19.40;;;;;;5121714;27;34159;-76
2022/04/04 07:35:02;;;;;;;6.50;3.85;;;6.90;19.10;;;;;;5113670;27;35859;-76
2022/04/04 07:37:29;;;;;;;4.47;3.67;;;7.10;19.50;;;;;;5112691;27;34085;-76
2022/04/04 07:39:55;;;;;;;4.38;3.25;;;7.20;19.30;;;;;;5092601;27;34107;-76
2022/04/04 07:42:21;;;;;;;5.78;3.80;;;7.20;19.10;;;;;;5094167;27;34610;-77
2022/04/04 07:44:47;;;;;;;5.60;3.83;;;7.20;19.00;;;;;;5127276;27;34301;-77
2022/04/04 07:47:13;;;;;;;3.58;3.17;;;7.10;19.30;;;;;;5111572;27;34157;-76
2022/04/04 07:49:39;;;;;;;4.25;3.30;;;7.00;19.60;;;;;;5091721;27;34122;-76
2022/04/04 07:52:06;;;;;;;4.25;3.17;;;6.90;20.00;;;;;;5116920;27;34370;-76
2022/04/04 07:54:32;;;;;;;6.43;3.35;;;6.90;20.10;;;;;;5127478;27;35003;-76
2022/04/04 07:56:58;;;;;;;7.50;3.47;;;6.90;20.30;;;;;;5090330;27;34063;-75
2022/04/04 07:59:25;;;;;;;3.20;2.88;;;6.90;20.20;;;;;;5108765;27;34218;-76
2022/04/04 08:01:51;;;;;;;5.65;4.00;;;6.90;20.10;;;;;;5109043;27;34064;-75
2022/04/04 08:04:17;;;;;;;5.55;3.35;;;7.00;20.60;;;;;;5109742;27;34322;-75
2022/04/04 08:06:43;;;;;;;4.72;3.13;;;7.00;20.50;;;;;;5108606;27;34169;-75
2022/04/04 08:09:10;;;;;;;4.25;3.22;;;7.10;20.50;;;;;;5091673;27;34117;-76
2022/04/04 08:11:36;;;;;;;5.22;3.25;;;7.10;20.50;;;;;;5075918;27;34261;-75
2022/04/04 08:14:04;;;;;;;4.55;3.38;;;7.20;20.40;;;;;;5115486;27;35730;-75
2022/04/04 08:16:30;;;;;;;4.30;3.20;;;7.40;20.40;;;;;;5093233;27;34361;-76
2022/04/04 08:18:56;;;;;;;4.88;3.63;;;7.40;20.00;;;;;;5124607;27;34645;-76
2022/04/04 08:21:23;;;;;;;2.55;2.35;;;7.50;20.30;;;;;;5110756;27;34433;-76
2022/04/04 08:23:49;;;;;;;3.88;3.40;;;7.50;20.00;;;;;;5092471;28;35168;-76
2022/04/04 08:26:15;;;;;;;4.25;3.58;;;7.50;20.30;;;;;;5090800;27;34271;-77
2022/04/04 08:28:41;;;;;;;4.40;2.55;;;7.60;20.40;;;;;;5089554;27;34339;-75
2022/04/04 08:31:07;;;;;;;4.65;3.42;;;7.60;20.00;;;;;;5112225;27;34075;-76
2022/04/04 08:33:33;;;;;;;4.03;3.63;;;7.80;20.10;;;;;;5091047;28;35458;-76
2022/04/04 08:36:00;;;;;;;4.97;3.63;;;8.10;20.40;;;;;;5091512;27;34265;-76
2022/04/04 08:38:26;;;;;;;3.63;2.60;;;8.40;19.90;;;;;;5129448;27;34053;-77
2022/04/04 08:40:53;;;;;;;2.65;2.45;;;8.70;19.50;;;;;;5111144;27;34288;-76
2022/04/04 08:43:19;;;;;;;5.03;2.70;;;8.90;18.70;;;;;;5095571;27;35712;-75
2022/04/04 08:45:48;;;;;;;3.75;3.40;;;9.00;18.60;;;;;;5106115;27;34115;-77
2022/04/04 08:48:15;;;;;;;3.17;2.85;;;9.00;17.50;;;;;;5129122;27;34193;-77
2022/04/04 08:50:42;;;;;;;4.05;2.90;;;9.10;18.70;;;;;;5094076;27;34105;-76
2022/04/04 08:53:08;;;;;;;3.63;3.10;;;9.20;18.40;;;;;;5093971;27;35800;-76
2022/04/04 08:55:35;;;;;;;4.22;2.80;;;9.10;18.20;;;;;;5126505;27;34159;-76
2022/04/04 08:58:02;;;;;;;3.50;2.60;;;9.00;18.10;;;;;;5110533;27;34188;-77
2022/04/04 09:00:29;;;;;;;4.43;2.60;;;9.00;17.50;;;;;;5105592;28;35271;-76
2022/04/04 09:03:04;;;;;;;4.57;3.00;;;9.00;18.00;;;;;;5111529;27;35654;-76
2022/04/04 09:05:34;;;;;;;3.83;3.10;;;9.10;17.70;;;;;;5128685;27;34143;-77
2022/04/04 09:08:06;;;;;;;2.97;2.58;;;9.40;15.70;;;;;;5106442;27;34485;-76
2022/04/04 09:10:34;;;;;;;4.10;2.50;;;9.60;16.50;;;;;;5106029;28;34122;-77
2022/04/04 09:13:10;;;;;;;2.40;2.20;;;9.70;16.60;;;;;;5113875;27;36173;-76
2022/04/04 09:15:53;;;;;;;5.53;2.63;;;9.90;13.50;;;;;;5080016;27;34122;-75
2022/04/04 09:18:31;;;;;;;5.28;2.50;;;10.20;12.20;;;;;;5112388;27;34221;-76
2022/04/04 09:20:57;;;;;;;6.13;2.50;;;10.50;15.70;;;;;;5080975;27;34511;-77
2022/04/04 09:23:23;;;;;;;2.95;2.70;;;10.70;16.20;;;;;;5109560;27;36322;-76
2022/04/04 09:25:49;;;;;;;2.42;2.22;;;10.90;16.20;;;;;;5092461;27;34072;-76
2022/04/04 09:28:18;;;;;;;2.35;2.15;;;11.10;15.80;;;;;;5093839;27;34286;-77
2022/04/04 09:31:04;;;;;;;2.50;2.30;;;11.30;13.10;;;;;;5093095;27;34331;-76
2022/04/04 09:33:35;;;;;;;3.15;2.00;;;11.40;14.00;;;;;;5098282;28;35712;-74
2022/04/04 09:36:02;;;;;;;2.80;2.05;;;11.30;11.90;;;;;;5109046;28;34068;-77
2022/04/04 09:38:30;;;;;;;3.35;1.88;;;11.00;13.40;;;;;;5090672;27;34160;-76
2022/04/04 09:40:57;;;;;;;1.83;1.63;;;10.90;13.60;;;;;;5078614;27;34467;-75
2022/04/04 09:43:23;;;;;;;1.65;1.55;;;10.80;13.00;;;;;;5128661;27;34402;-76
2022/04/04 09:45:49;;;;;;;2.03;1.83;;;10.60;11.20;;;;;;5074953;28;34323;-76
2022/04/04 09:48:15;;;;;;;3.78;2.20;;;10.60;14.50;;;;;;5088937;27;34216;-76
2022/04/04 09:50:45;;;;;;;2.95;2.38;;;10.50;12.40;;;;;;5094947;27;34482;-76
2022/04/04 09:53:22;;;;;;;4.18;2.03;;;10.60;13.60;;;;;;5097443;28;36525;-75
2022/04/04 09:55:52;;;;;;;3.25;2.30;;;10.60;12.10;;;;;;5070650;28;33679;-76
2022/04/04 09:58:20;;;;;;;2.80;2.13;;;10.70;14.20;;;;;;5084924;27;34494;-78
2022/04/04 10:00:49;;;;;;;2.47;1.95;;;10.90;14.10;;;;;;5094646;27;34291;-76
2022/04/04 10:03:18;;;;;;;2.70;2.00;;;11.00;14.00;;;;;;5122047;27;34312;-77
2022/04/04 10:05:55;;;;;;;3.25;2.20;;;11.10;13.30;;;;;;5068442;28;34101;-75
2022/04/04 10:08:24;;;;;;;2.10;1.90;;;11.30;12.80;;;;;;5116748;27;34373;-76
2022/04/04 10:10:51;;;;;;;2.88;1.80;;;11.30;12.20;;;;;;5063634;27;34626;-77
2022/04/04 10:13:17;;;;;;;3.67;2.30;;;11.40;13.20;;;;;;5094235;27;35531;-79
2022/04/04 10:15:44;;;;;;;3.58;1.98;;;11.40;13.10;;;;;;5109873;27;34278;-77
2022/04/04 10:18:11;;;;;;;2.13;1.92;;;11.30;10.10;;;;;;5107843;27;35332;-75
2022/04/04 10:20:37;;;;;;;3.45;1.75;;;11.30;12.90;;;;;;5090112;27;34824;-78
2022/04/04 10:23:06;;;;;;;2.05;1.88;;;11.30;12.80;;;;;;5105390;27;37410;-77
2022/04/04 10:25:34;;;;;;;3.13;2.00;;;11.50;11.10;;;;;;5107911;27;34296;-77
2022/04/04 10:28:00;;;;;;;3.83;1.88;;;11.80;11.20;;;;;;5088829;27;34278;-76
2022/04/04 10:30:40;;;;;;;2.95;2.10;;;11.80;8.90;;;;;;5110411;27;34452;-78
2022/04/04 10:33:19;;;;;;;2.95;2.22;;;11.80;8.20;;;;;;5101908;28;35917;-76
2022/04/04 10:36:00;;;;;;;4.25;2.15;;;11.70;8.90;;;;;;5090641;28;34278;-77
2022/04/04 10:38:33;;;;;;;2.67;2.08;;;11.60;8.40;;;;;;5075838;27;34306;-75
2022/04/04 10:41:03;;;;;;;2.53;2.20;;;11.70;10.90;;;;;;5111404;27;33577;-77
2022/04/04 10:43:33;;;;;;;7.13;2.40;;;11.90;11.50;;;;;;5092056;28;35582;-76
2022/04/04 10:46:02;;;;;;;2.33;2.05;;;12.00;11.30;;;;;;5112693;27;34074;-75
2022/04/04 10:48:32;;;;;;;2.65;2.00;;;12.00;10.30;;;;;;5103766;27;34298;-76
2022/04/04 10:51:03;;;;;;;2.45;1.83;;;11.90;9.30;;;;;;5093835;27;34212;-76
2022/04/04 10:53:41;;;;;;;4.68;2.00;;;11.90;8.60;;;;;;5116598;27;35208;-75
2022/04/04 10:56:11;;;;;;;3.22;2.05;;;11.80;6.00;;;;;;5094554;28;34260;-75
2022/04/04 10:58:37;;;;;;;2.78;1.80;;;11.70;9.10;;;;;;5079094;27;34174;-75
2022/04/04 11:01:09;;;;;;;2.75;1.80;;;11.60;10.20;;;;;;5107342;27;34072;-76
2022/04/04 11:03:40;;;;;;;2.22;1.83;;;11.50;8.40;;;;;;5091700;27;35926;-76
2022/04/04 11:09:19;;;;;;;2.10;1.88;;;11.30;8.10;;;;;;5104720;27;34083;-77
2022/04/04 11:11:50;;;;;;;3.60;1.70;;;11.10;6.50;;;;;;5046976;28;34136;-76
2022/04/04 11:17:32;;;;;;;3.47;1.92;;;11.20;6.50;;;;;;5023371;28;34105;-77
2022/04/04 11:20:31;;;;;;;2.25;1.60;;;11.50;9.50;;;;;;5061406;28;34363;-77
2022/04/04 11:23:03;;;;;;;2.08;1.83;;;11.50;6.70;;;;;;5053518;28;34096;-75
2022/04/04 11:25:34;;;;;;;2.05;1.83;;;11.70;9.00;;;;;;5054758;28;36450;-76
2022/04/04 11:28:01;;;;;;;2.05;1.73;;;11.80;8.60;;;;;;5066191;28;34434;-76
2022/04/04 11:30:27;;;;;;;2.20;2.00;;;11.80;8.10;;;;;;5032277;28;34237;-75
2022/04/04 11:32:57;;;;;;;2.85;2.03;;;11.80;9.80;;;;;;5048083;28;34249;-76
2022/04/04 11:35:27;;;;;;;3.30;2.20;;;11.80;8.40;;;;;;5030441;28;35620;-75
2022/04/04 11:38:05;;;;;;;3.33;2.08;;;12.00;9.70;;;;;;5030770;28;34193;-77
2022/04/04 11:40:36;;;;;;;4.05;2.30;;;12.10;5.60;;;;;;5048799;28;34533;-75
2022/04/04 11:45:53;;;;;;;2.50;1.92;;;12.50;9.00;;;;;;5081719;28;34346;-76
2022/04/04 11:48:28;;;;;;;2.83;2.20;;;12.80;9.20;;;;;;5060092;28;34174;-76
2022/04/04 11:50:57;;;;;;;3.78;2.25;;;12.70;7.20;;;;;;5094736;28;34247;-77
2022/04/04 11:53:27;;;;;;;2.53;2.33;;;12.40;8.00;;;;;;5094462;28;34093;-76
2022/04/04 11:56:04;;;;;;;3.40;2.30;;;12.40;7.80;;;;;;5079996;27;36059;-75
2022/04/04 11:58:35;;;;;;;3.22;2.50;;;12.40;9.00;;;;;;5100824;27;34361;-77
2022/04/04 12:01:04;;;;;;;3.08;2.65;;;12.50;9.40;;;;;;5120028;27;34415;-76
2022/04/04 12:03:32;;;;;;;3.35;2.40;;;12.60;9.60;;;;;;5132630;27;33964;-75
2022/04/04 12:06:06;;;;;;;5.25;2.63;;;12.60;8.70;;;;;;5130932;27;34370;-76
2022/04/04 12:08:32;;;;;;;3.28;2.20;;;12.60;9.00;;;;;;5113095;27;34331;-75
2022/04/04 12:10:58;;;;;;;2.50;2.15;;;12.80;9.30;;;;;;5114574;27;34251;-76
2022/04/04 12:13:26;;;;;;;5.63;2.53;;;12.80;9.30;;;;;;5132804;27;34362;-77
2022/04/04 12:15:54;;;;;;;3.47;2.22;;;12.60;8.40;;;;;;5132537;27;34961;-77
2022/04/04 12:18:23;;;;;;;3.10;2.80;;;12.40;8.70;;;;;;5114653;27;34212;-76
2022/04/04 12:20:53;;;;;;;3.00;2.65;;;12.20;8.30;;;;;;5096325;27;34235;-76
2022/04/04 12:26:07;;;;;;;2.78;2.53;;;11.80;10.20;;;;;;5131115;27;34145;-77
2022/04/04 12:28:35;;;;;;;3.03;2.67;;;11.70;10.30;;;;;;5114126;27;34087;-75
2022/04/04 12:31:26;;;;;;;3.30;2.30;;;11.50;8.70;;;;;;5130427;27;34361;-76
2022/04/04 12:34:03;;;;;;;3.00;2.70;;;11.40;8.10;;;;;;5108731;28;34508;-76
2022/04/04 12:36:30;;;;;;;3.85;2.95;;;11.30;9.50;;;;;;5075369;28;35587;-75
2022/04/04 12:38:58;;;;;;;2.05;1.90;;;11.20;9.50;;;;;;5092025;28;34301;-79
2022/04/04 12:41:25;;;;;;;2.90;2.53;;;11.20;9.10;;;;;;5077381;27;34114;-75
2022/04/04 12:44:01;;;;;;;4.32;2.38;;;11.20;9.50;;;;;;5131932;27;34041;-76
2022/04/04 12:46:31;;;;;;;3.75;2.53;;;11.20;8.60;;;;;;5111940;27;34446;-75
2022/04/04 12:49:14;;;;;;;2.60;1.90;;;11.30;8.90;;;;;;5129623;27;34153;-74
2022/04/04 12:51:52;;;;;;;5.28;2.40;;;11.40;6.90;;;;;;5112727;27;34552;-76
2022/04/04 12:54:28;;;;;;;4.55;2.33;;;11.40;7.40;;;;;;5094892;27;34460;-75
2022/04/04 12:56:55;;;;;;;2.28;2.05;;;11.40;7.90;;;;;;5094710;27;35847;-77
2022/04/04 12:59:24;;;;;;;3.97;1.92;;;11.50;8.80;;;;;;5108856;27;34127;-76
2022/04/04 13:02:06;;;;;;;2.13;1.92;;;11.40;6.80;;;;;;5095373;27;34410;-78
2022/04/04 13:04:33;;;;;;;4.38;2.20;;;11.30;6.20;;;;;;5112159;27;34329;-77
2022/04/04 13:07:01;;;;;;;2.28;1.98;;;11.30;9.10;;;;;;5095613;27;35868;-77
2022/04/04 13:09:28;;;;;;;2.90;2.28;;;11.10;9.30;;;;;;5111827;27;33696;-77
2022/04/04 13:11:56;;;;;;;2.63;1.77;;;11.20;9.30;;;;;;5130470;27;33962;-77
2022/04/04 13:14:23;;;;;;;5.13;2.00;;;11.10;9.30;;;;;;5113087;27;34049;-77